createdAt,value
2018-05-25T00:01:00.351Z,89.50
2018-05-25T00:03:27.807Z,89.10
2018-05-25T00:05:55.257Z,89.50
2018-05-25T00:08:22.720Z,88.90
2018-05-25T00:10:50.934Z,88.40
2018-05-25T00:13:18.380Z,88.20
2018-05-25T00:15:45.846Z,88.30
2018-05-25T00:18:13.282Z,88.40
2018-05-25T00:20:40.726Z,88.10
2018-05-25T00:23:08.170Z,87.50
2018-05-25T00:25:35.639Z,87.00
2018-05-25T00:28:03.847Z,87.30
2018-05-25T00:30:31.308Z,87.10
2018-05-25T00:32:58.805Z,87.40
2018-05-25T00:35:26.264Z,87.60
2018-05-25T00:37:53.699Z,88.40
2018-05-25T00:40:21.157Z,87.60
2018-05-25T00:42:48.614Z,87.10
2018-05-25T00:45:16.046Z,87.10
2018-05-25T00:47:43.482Z,86.10
2018-05-25T00:50:10.937Z,85.90
2018-05-25T00:52:38.380Z,85.70
2018-05-25T00:55:17.741Z,85.80
2018-05-25T00:57:45.174Z,85.60
2018-05-25T01:00:12.646Z,85.80
2018-05-25T01:02:40.089Z,86.30
2018-05-25T01:05:07.546Z,86.00
2018-05-25T01:07:34.997Z,85.60
2018-05-25T01:10:02.467Z,85.80
2018-05-25T01:12:29.935Z,85.80
2018-05-25T01:14:57.382Z,86.30
2018-05-25T01:17:25.585Z,85.70
2018-05-25T01:19:53.027Z,85.70
2018-05-25T01:22:20.482Z,84.80
2018-05-25T01:24:47.919Z,85.60
2018-05-25T01:27:15.373Z,85.50
2018-05-25T01:29:42.834Z,85.70
2018-05-25T01:32:10.311Z,85.20
2018-05-25T01:34:38.523Z,86.50
2018-05-25T01:37:05.955Z,86.50
2018-05-25T01:39:33.405Z,86.30
2018-05-25T01:42:00.846Z,86.00
2018-05-25T01:44:28.302Z,86.20
2018-05-25T01:46:55.767Z,86.50
2018-05-25T01:49:23.218Z,87.50
2018-05-25T01:51:51.437Z,87.70
2018-05-25T01:54:18.866Z,87.70
2018-05-25T01:56:46.310Z,87.90
2018-05-25T01:59:13.751Z,88.20
2018-05-25T02:01:41.203Z,88.80
2018-05-25T02:04:08.645Z,89.20
2018-05-25T02:06:36.102Z,87.70
2018-05-25T02:09:03.562Z,88.40
2018-05-25T02:11:31.017Z,87.70
2018-05-25T02:13:58.459Z,87.80
2018-05-25T02:16:25.898Z,87.90
2018-05-25T02:18:54.109Z,86.80
2018-05-25T02:21:21.575Z,86.70
2018-05-25T02:23:49.006Z,87.70
2018-05-25T02:26:16.450Z,87.60
2018-05-25T02:28:43.941Z,88.40
2018-05-25T02:31:12.145Z,89.30
2018-05-25T02:33:39.583Z,89.30
2018-05-25T02:36:07.026Z,88.90
2018-05-25T02:38:34.522Z,89.00
2018-05-25T02:41:01.915Z,88.20
2018-05-25T02:43:29.375Z,88.40
2018-05-25T02:45:56.823Z,87.50
2018-05-25T02:48:24.268Z,87.80
2018-05-25T02:50:51.716Z,87.10
2018-05-25T02:53:19.173Z,86.80
2018-05-25T02:55:46.631Z,87.20
2018-05-25T02:58:14.834Z,86.70
2018-05-25T03:00:42.284Z,86.70
2018-05-25T03:03:09.726Z,86.50
2018-05-25T03:05:37.174Z,87.20
2018-05-25T03:08:04.655Z,87.50
2018-05-25T03:10:32.090Z,87.60
2018-05-25T03:12:59.546Z,87.60
2018-05-25T03:15:27.737Z,86.10
2018-05-25T03:17:55.194Z,86.00
2018-05-25T03:20:22.634Z,86.00
2018-05-25T03:22:50.110Z,87.30
2018-05-25T03:25:17.565Z,86.40
2018-05-25T03:27:45.023Z,86.70
2018-05-25T03:30:13.217Z,86.40
2018-05-25T03:32:40.650Z,86.40
2018-05-25T03:35:08.085Z,87.10
2018-05-25T03:37:35.539Z,86.00
2018-05-25T03:40:03.003Z,85.80
2018-05-25T03:42:30.442Z,86.00
2018-05-25T03:44:57.893Z,85.50
2018-05-25T03:47:25.726Z,85.50
2018-05-25T03:49:53.163Z,84.60
2018-05-25T03:52:20.619Z,85.40
2018-05-25T03:54:48.074Z,85.40
2018-05-25T03:57:15.522Z,85.60
2018-05-25T03:59:54.885Z,85.40
2018-05-25T04:02:23.110Z,86.40
2018-05-25T04:04:50.562Z,86.40
2018-05-25T04:07:18.024Z,86.90
2018-05-25T04:09:46.500Z,87.60
2018-05-25T04:12:15.551Z,88.20
2018-05-25T04:14:42.986Z,88.30
2018-05-25T04:17:10.455Z,87.30
2018-05-25T04:19:38.684Z,86.20
2018-05-25T04:22:06.150Z,86.20
2018-05-25T04:24:33.631Z,85.60
2018-05-25T04:27:01.066Z,85.40
2018-05-25T04:29:28.513Z,84.40
2018-05-25T04:31:55.970Z,84.30
2018-05-25T04:34:23.442Z,85.10
2018-05-25T04:36:50.889Z,85.70
2018-05-25T04:39:18.340Z,85.30
2018-05-25T04:41:45.774Z,86.10
2018-05-25T04:44:13.213Z,85.80
2018-05-25T04:46:40.666Z,85.70
2018-05-25T04:49:08.110Z,86.50
2018-05-25T04:51:35.545Z,86.80
2018-05-25T04:54:03.003Z,87.50
2018-05-25T04:56:30.442Z,88.10
2018-05-25T04:58:57.900Z,88.50
2018-05-25T05:01:26.102Z,86.50
2018-05-25T05:03:53.557Z,87.00
2018-05-25T05:06:21.002Z,87.30
2018-05-25T05:08:48.462Z,86.20
2018-05-25T05:11:15.910Z,86.00
2018-05-25T05:13:43.365Z,85.20
2018-05-25T05:16:10.794Z,83.10
2018-05-25T05:18:38.245Z,82.20
2018-05-25T05:21:05.670Z,81.00
2018-05-25T05:23:33.945Z,78.40
2018-05-25T05:26:01.377Z,78.30
2018-05-25T05:28:28.846Z,75.70
2018-05-25T05:30:56.282Z,73.70
2018-05-25T05:33:23.725Z,71.30
2018-05-25T05:35:51.171Z,70.60
2018-05-25T05:38:18.639Z,68.50
2018-05-25T05:40:46.113Z,67.00
2018-05-25T05:43:13.541Z,66.00
2018-05-25T05:45:40.988Z,65.60
2018-05-25T05:48:08.417Z,65.10
2018-05-25T05:50:35.865Z,63.80
2018-05-25T05:53:03.299Z,63.20
2018-05-25T05:55:30.756Z,61.20
2018-05-25T05:57:58.191Z,61.00
2018-05-25T06:00:25.628Z,58.70
2018-05-25T06:02:53.049Z,57.50
2018-05-25T06:05:21.251Z,55.60
2018-05-25T06:07:48.719Z,55.60
2018-05-25T06:10:16.150Z,55.20
2018-05-25T06:12:44.357Z,54.20
2018-05-25T06:15:11.803Z,54.20
2018-05-25T06:17:39.226Z,53.10
2018-05-25T06:20:06.748Z,53.70
2018-05-25T06:22:35.010Z,52.90
2018-05-25T06:25:02.454Z,52.80
2018-05-25T06:27:29.896Z,52.50
2018-05-25T06:29:57.337Z,52.10
2018-05-25T06:32:24.787Z,52.30
2018-05-25T06:34:52.321Z,52.10
2018-05-25T06:37:19.660Z,51.00
2018-05-25T06:39:47.101Z,50.70
2018-05-25T06:42:14.536Z,49.80
2018-05-25T06:44:41.969Z,48.50
2018-05-25T06:47:09.425Z,49.30
2018-05-25T06:49:36.854Z,48.50
2018-05-25T06:52:04.301Z,48.10
2018-05-25T06:54:31.762Z,49.80
2018-05-25T06:56:59.962Z,47.60
2018-05-25T06:59:28.193Z,47.50
2018-05-25T07:01:55.649Z,47.40
2018-05-25T07:04:23.114Z,48.20
2018-05-25T07:06:51.345Z,46.90
2018-05-25T07:09:18.870Z,46.80
2018-05-25T07:11:46.297Z,46.90
2018-05-25T07:14:13.747Z,46.70
2018-05-25T07:16:41.229Z,45.80
2018-05-25T07:19:08.656Z,46.00
2018-05-25T07:21:36.104Z,44.90
2018-05-25T07:24:03.621Z,44.60
2018-05-25T07:26:31.045Z,45.80
2018-05-25T07:28:58.488Z,45.50
2018-05-25T07:31:25.959Z,45.40
2018-05-25T07:33:53.401Z,43.80
2018-05-25T07:36:20.886Z,43.70
2018-05-25T07:38:48.382Z,45.20
2018-05-25T07:41:15.861Z,45.60
2018-05-25T07:43:43.300Z,45.10
2018-05-25T07:46:10.737Z,44.00
2018-05-25T07:48:38.181Z,44.10
2018-05-25T07:51:05.625Z,42.90
2018-05-25T07:53:33.099Z,44.30
2018-05-25T07:56:01.302Z,45.90
2018-05-25T07:58:28.729Z,45.80
2018-05-25T08:00:56.185Z,44.50
2018-05-25T08:03:23.623Z,44.20
2018-05-25T08:05:51.096Z,43.80
2018-05-25T08:08:18.550Z,42.80
2018-05-25T08:10:46.122Z,41.20
2018-05-25T08:13:13.623Z,40.60
2018-05-25T08:15:41.048Z,40.30
2018-05-25T08:18:08.504Z,42.10
2018-05-25T08:20:35.938Z,38.80
2018-05-25T08:23:03.375Z,39.10
2018-05-25T08:25:30.818Z,39.90
2018-05-25T08:27:58.276Z,39.40
2018-05-25T08:30:25.708Z,39.00
2018-05-25T08:32:53.140Z,38.50
2018-05-25T08:35:20.583Z,40.00
2018-05-25T08:37:48.051Z,38.10
2018-05-25T08:40:15.490Z,39.70
2018-05-25T08:42:42.973Z,39.90
2018-05-25T08:45:11.178Z,38.20
2018-05-25T08:47:38.635Z,37.60
2018-05-25T08:50:06.091Z,37.80
2018-05-25T08:52:33.577Z,37.60
2018-05-25T08:55:01.020Z,37.70
2018-05-25T08:57:28.459Z,38.70
2018-05-25T08:59:56.682Z,36.20
2018-05-25T09:02:24.129Z,36.20
2018-05-25T09:04:51.618Z,36.60
2018-05-25T09:07:19.066Z,36.70
2018-05-25T09:09:46.519Z,35.00
2018-05-25T09:12:13.973Z,34.30
2018-05-25T09:14:41.452Z,33.00
2018-05-25T09:17:08.944Z,35.40
2018-05-25T09:19:36.376Z,34.50
2018-05-25T09:22:03.864Z,32.90
2018-05-25T09:24:31.317Z,34.80
2018-05-25T09:26:58.754Z,33.50
2018-05-25T09:29:26.194Z,32.00
2018-05-25T09:31:53.645Z,30.70
2018-05-25T09:34:21.099Z,32.60
2018-05-25T09:36:48.559Z,30.80
2018-05-25T09:39:16.018Z,32.20
2018-05-25T09:41:43.475Z,31.40
2018-05-25T09:44:10.943Z,30.40
2018-05-25T09:46:38.386Z,30.00
2018-05-25T09:49:05.854Z,29.60
2018-05-25T09:51:34.102Z,28.80
2018-05-25T09:54:01.553Z,28.70
2018-05-25T09:56:29.015Z,28.90
2018-05-25T09:58:57.258Z,29.90
2018-05-25T10:01:24.733Z,29.80
2018-05-25T10:03:52.963Z,32.20
2018-05-25T10:06:20.966Z,32.10
2018-05-25T10:08:48.386Z,30.70
2018-05-25T10:11:15.934Z,31.20
2018-05-25T10:13:43.401Z,33.20
2018-05-25T10:16:10.846Z,33.90
2018-05-25T10:18:38.350Z,33.80
2018-05-25T10:21:05.831Z,32.20
2018-05-25T10:23:33.325Z,32.90
2018-05-25T10:26:01.563Z,35.10
2018-05-25T10:28:29.073Z,34.40
2018-05-25T10:30:56.586Z,34.70
2018-05-25T10:33:24.032Z,35.10
2018-05-25T10:35:52.289Z,36.40
2018-05-25T10:38:20.521Z,37.80
2018-05-25T10:40:47.962Z,37.80
2018-05-25T10:43:15.422Z,38.10
2018-05-25T10:45:43.001Z,37.90
2018-05-25T10:48:10.406Z,40.30
2018-05-25T10:50:37.863Z,40.70
2018-05-25T10:53:06.074Z,40.70
2018-05-25T10:55:34.046Z,40.60
2018-05-25T10:58:01.573Z,40.80
2018-05-25T11:00:29.065Z,38.90
2018-05-25T11:02:56.504Z,40.00
2018-05-25T11:05:23.934Z,39.50
2018-05-25T11:07:51.379Z,39.30
2018-05-25T11:10:18.865Z,38.50
2018-05-25T11:12:46.290Z,39.90
2018-05-25T11:15:15.614Z,40.60
2018-05-25T11:17:43.065Z,40.60
2018-05-25T11:20:10.523Z,40.30
2018-05-25T11:22:37.982Z,39.50
2018-05-25T11:25:05.419Z,40.00
2018-05-25T11:27:32.896Z,39.70
2018-05-25T11:30:00.368Z,38.60
2018-05-25T11:32:28.555Z,37.60
2018-05-25T11:34:56.016Z,37.50
2018-05-25T11:37:23.448Z,38.70
2018-05-25T11:39:50.881Z,37.70
2018-05-25T11:42:18.946Z,37.30
2018-05-25T11:44:46.369Z,39.10
2018-05-25T11:47:14.576Z,38.50
2018-05-25T11:49:42.780Z,38.10
2018-05-25T11:52:10.259Z,38.10
2018-05-25T11:54:37.696Z,37.70
2018-05-25T11:57:05.154Z,37.70
2018-05-25T11:59:32.585Z,37.80
2018-05-25T12:02:00.042Z,35.40
2018-05-25T12:04:28.246Z,35.60
2018-05-25T12:06:55.701Z,35.60
2018-05-25T12:09:23.158Z,35.70
2018-05-25T12:11:50.617Z,37.50
2018-05-25T12:14:18.101Z,38.30
2018-05-25T12:16:45.546Z,38.40
2018-05-25T12:19:12.989Z,37.10
2018-05-25T12:21:40.446Z,36.70
2018-05-25T12:24:07.905Z,37.20
2018-05-25T12:26:35.363Z,37.50
2018-05-25T12:29:02.971Z,36.40
2018-05-25T12:31:30.415Z,34.50
2018-05-25T12:33:57.858Z,34.90
2018-05-25T12:36:25.317Z,34.40
2018-05-25T12:38:52.748Z,33.20
2018-05-25T12:41:20.277Z,33.70
2018-05-25T12:43:47.728Z,33.10
2018-05-25T12:46:16.015Z,32.30
2018-05-25T12:48:43.510Z,33.10
2018-05-25T12:51:11.735Z,33.00
2018-05-25T12:53:39.575Z,33.00
2018-05-25T12:56:07.007Z,33.90
2018-05-25T12:58:34.459Z,34.40
2018-05-25T13:01:01.978Z,34.40
2018-05-25T13:03:29.425Z,34.20
2018-05-25T13:05:56.861Z,34.50
2018-05-25T13:08:24.306Z,34.90
2018-05-25T13:10:51.752Z,33.90
2018-05-25T13:13:19.220Z,33.40
2018-05-25T13:15:46.649Z,33.20
2018-05-25T13:18:14.096Z,33.20
2018-05-25T13:20:41.534Z,34.50
2018-05-25T13:23:08.984Z,34.30
2018-05-25T13:25:37.079Z,33.40
2018-05-25T13:28:04.517Z,34.30
2018-05-25T13:30:31.962Z,34.80
2018-05-25T13:32:59.424Z,34.80
2018-05-25T13:35:27.729Z,30.90
2018-05-25T13:37:55.199Z,30.80
2018-05-25T13:40:22.626Z,31.20
2018-05-25T13:42:50.106Z,30.80
2018-05-25T13:45:18.316Z,31.90
2018-05-25T13:47:45.768Z,31.80
2018-05-25T13:50:13.229Z,30.70
2018-05-25T13:52:40.686Z,29.80
2018-05-25T13:55:08.148Z,28.90
2018-05-25T13:57:36.389Z,30.40
2018-05-25T14:00:03.838Z,30.40
2018-05-25T14:02:31.277Z,31.60
2018-05-25T14:04:58.769Z,33.70
2018-05-25T14:07:26.206Z,34.00
2018-05-25T14:09:53.659Z,33.70
2018-05-25T14:12:21.189Z,32.70
2018-05-25T14:14:48.635Z,34.10
2018-05-25T14:17:16.086Z,34.40
2018-05-25T14:19:43.535Z,35.10
2018-05-25T14:22:10.961Z,35.00
2018-05-25T14:24:38.409Z,34.80
2018-05-25T14:27:05.859Z,34.60
2018-05-25T14:29:33.299Z,34.00
2018-05-25T14:32:00.742Z,32.70
2018-05-25T14:34:28.181Z,33.70
2018-05-25T14:36:55.636Z,32.90
2018-05-25T14:39:23.102Z,34.10
2018-05-25T14:41:50.552Z,34.40
2018-05-25T14:44:17.998Z,33.60
2018-05-25T14:46:45.425Z,32.20
2018-05-25T14:49:12.934Z,33.20
2018-05-25T14:51:40.382Z,34.10
2018-05-25T14:54:07.839Z,34.00
2018-05-25T14:56:35.278Z,34.30
2018-05-25T14:59:02.756Z,34.60
2018-05-25T15:01:30.237Z,34.90
2018-05-25T15:03:58.471Z,35.00
2018-05-25T15:06:25.927Z,35.00
2018-05-25T15:08:54.138Z,35.20
2018-05-25T15:11:21.581Z,35.20
2018-05-25T15:13:49.098Z,35.30
2018-05-25T15:16:16.634Z,32.80
2018-05-25T15:18:44.123Z,32.70
2018-05-25T15:21:11.574Z,33.30
2018-05-25T15:23:39.032Z,32.80
2018-05-25T15:26:07.297Z,33.20
2018-05-25T15:28:34.726Z,33.10
2018-05-25T15:31:02.259Z,34.40
2018-05-25T15:33:29.622Z,35.70
2018-05-25T15:35:57.127Z,35.30
2018-05-25T15:38:24.598Z,33.40
2018-05-25T15:40:52.059Z,34.40
2018-05-25T15:43:20.294Z,34.70
2018-05-25T15:45:47.751Z,34.70
2018-05-25T15:48:15.201Z,33.90
2018-05-25T15:50:42.650Z,34.90
2018-05-25T15:53:10.103Z,37.30
2018-05-25T15:55:38.328Z,42.00
2018-05-25T15:58:05.778Z,41.90
2018-05-25T16:00:33.239Z,43.10
2018-05-25T16:03:00.710Z,43.20
2018-05-25T16:05:28.155Z,44.50
2018-05-25T16:07:55.619Z,45.20
2018-05-25T16:10:23.074Z,45.90
2018-05-25T16:12:50.544Z,46.60
2018-05-25T16:15:17.970Z,46.40
2018-05-25T16:17:45.430Z,46.40
2018-05-25T16:20:12.902Z,46.70
2018-05-25T16:22:41.104Z,46.80
2018-05-25T16:25:08.570Z,46.80
2018-05-25T16:27:36.006Z,47.60
2018-05-25T16:30:03.474Z,48.00
2018-05-25T16:32:31.722Z,48.50
2018-05-25T16:34:59.216Z,48.50
2018-05-25T16:37:26.653Z,48.70
2018-05-25T16:39:54.098Z,48.50
2018-05-25T16:42:21.525Z,48.70
2018-05-25T16:44:48.978Z,48.30
2018-05-25T16:47:16.427Z,48.70
2018-05-25T16:49:43.881Z,48.40
2018-05-25T16:52:11.694Z,47.70
2018-05-25T16:54:39.906Z,47.30
2018-05-25T16:57:07.334Z,47.20
2018-05-25T16:59:34.773Z,47.90
2018-05-25T17:02:02.237Z,47.20
2018-05-25T17:04:29.687Z,47.50
2018-05-25T17:06:57.130Z,44.50
2018-05-25T17:09:24.586Z,45.00
2018-05-25T17:11:52.025Z,45.10
2018-05-25T17:14:19.479Z,45.50
2018-05-25T17:16:46.938Z,45.50
2018-05-25T17:19:14.368Z,45.90
2018-05-25T17:21:42.584Z,46.90
2018-05-25T17:24:10.048Z,46.60
2018-05-25T17:26:37.494Z,46.20
2018-05-25T17:29:04.954Z,45.90
2018-05-25T17:31:32.404Z,46.20
2018-05-25T17:34:00.606Z,46.90
2018-05-25T17:36:28.037Z,46.60
2018-05-25T17:38:55.487Z,46.80
2018-05-25T17:41:22.954Z,47.30
2018-05-25T17:43:51.154Z,48.00
2018-05-25T17:46:18.609Z,48.10
2018-05-25T17:48:46.090Z,48.20
2018-05-25T17:51:13.572Z,46.90
2018-05-25T17:53:41.875Z,47.10
2018-05-25T17:56:09.335Z,47.00
2018-05-25T17:58:36.838Z,45.60
2018-05-25T18:01:05.065Z,47.70
2018-05-25T18:03:32.522Z,47.70
2018-05-25T18:05:59.980Z,47.90
2018-05-25T18:08:28.195Z,48.10
2018-05-25T18:10:55.629Z,48.10
2018-05-25T18:13:23.142Z,48.00
2018-05-25T18:15:51.346Z,49.40
2018-05-25T18:18:18.802Z,49.40
2018-05-25T18:20:46.225Z,49.60
2018-05-25T18:23:13.677Z,49.50
2018-05-25T18:25:41.111Z,49.40
2018-05-25T18:28:08.584Z,49.50
2018-05-25T18:30:36.023Z,50.00
2018-05-25T18:33:03.466Z,50.80
2018-05-25T18:35:30.916Z,51.30
2018-05-25T18:37:58.362Z,51.70
2018-05-25T18:40:25.819Z,51.70
2018-05-25T18:42:54.042Z,53.00
2018-05-25T18:45:21.494Z,53.00
2018-05-25T18:47:48.952Z,53.30
2018-05-25T18:50:16.390Z,53.40
2018-05-25T18:52:43.823Z,53.70
2018-05-25T18:55:11.276Z,54.00
2018-05-25T18:57:38.702Z,54.40
2018-05-25T19:00:06.150Z,55.10
2018-05-25T19:02:33.594Z,55.90
2018-05-25T19:05:01.062Z,56.50
2018-05-25T19:07:29.274Z,57.50
2018-05-25T19:09:56.713Z,57.50
2018-05-25T19:12:24.170Z,57.50
2018-05-25T19:14:51.634Z,57.70
2018-05-25T19:17:19.111Z,58.20
2018-05-25T19:19:47.317Z,58.30
2018-05-25T19:22:14.750Z,58.40
2018-05-25T19:24:42.207Z,58.30
2018-05-25T19:27:09.675Z,58.90
2018-05-25T19:29:37.119Z,58.50
2018-05-25T19:32:04.554Z,58.50
2018-05-25T19:34:32.007Z,58.00
2018-05-25T19:37:00.211Z,58.20
2018-05-25T19:39:27.654Z,58.10
2018-05-25T19:41:55.128Z,58.40
2018-05-25T19:44:22.566Z,58.40
2018-05-25T19:46:50.016Z,58.00
2018-05-25T19:49:17.456Z,57.70
2018-05-25T19:51:45.758Z,57.90
2018-05-25T19:54:15.195Z,58.00
2018-05-25T19:56:42.637Z,58.00
2018-05-25T19:59:10.090Z,58.30
2018-05-25T20:01:37.518Z,58.40
2018-05-25T20:04:05.173Z,58.40
2018-05-25T20:06:32.623Z,58.30
2018-05-25T20:09:00.087Z,58.00
2018-05-25T20:11:27.549Z,58.20
2018-05-25T20:13:57.483Z,58.70
2018-05-25T20:16:24.917Z,58.70
2018-05-25T20:18:52.395Z,58.30
2018-05-25T20:21:19.884Z,58.10
2018-05-25T20:23:48.088Z,58.40
2018-05-25T20:26:15.581Z,58.30
2018-05-25T20:28:43.789Z,59.00
2018-05-25T20:31:11.230Z,59.00
2018-05-25T20:33:38.663Z,59.00
2018-05-25T20:36:06.124Z,58.90
2018-05-25T20:38:33.552Z,58.90
2018-05-25T20:41:01.001Z,58.90
2018-05-25T20:43:28.440Z,58.70
2018-05-25T20:45:55.886Z,58.60
2018-05-25T20:48:23.329Z,58.50
2018-05-25T20:50:50.786Z,58.50
2018-05-25T20:53:18.238Z,59.00
2018-05-25T20:55:46.444Z,58.40
2018-05-25T20:58:13.870Z,58.40
2018-05-25T21:00:42.098Z,59.10
2018-05-25T21:03:09.559Z,59.00
2018-05-25T21:05:37.013Z,59.10
2018-05-25T21:08:05.254Z,59.10
2018-05-25T21:10:32.685Z,58.80
2018-05-25T21:13:00.129Z,59.30
2018-05-25T21:15:27.583Z,58.90
2018-05-25T21:17:55.023Z,58.90
2018-05-25T21:20:22.483Z,58.80
2018-05-25T21:22:50.685Z,59.40
2018-05-25T21:25:18.150Z,59.40
2018-05-25T21:27:45.594Z,59.50
2018-05-25T21:30:13.034Z,59.60
2018-05-25T21:32:40.514Z,59.30
2018-05-25T21:35:08.469Z,59.50
2018-05-25T21:37:35.874Z,59.50
2018-05-25T21:40:03.306Z,60.10
2018-05-25T21:42:30.741Z,60.30
2018-05-25T21:44:58.207Z,60.50
2018-05-25T21:47:25.638Z,60.60
2018-05-25T21:49:53.101Z,60.60
2018-05-25T21:52:20.561Z,60.50
2018-05-25T21:54:48.034Z,60.90
2018-05-25T21:57:16.219Z,60.60
2018-05-25T21:59:43.678Z,60.60
2018-05-25T22:02:11.111Z,60.60
2018-05-25T22:04:38.585Z,60.60
2018-05-25T22:07:06.046Z,60.60
2018-05-25T22:09:33.497Z,60.60
2018-05-25T22:12:02.702Z,60.70
2018-05-25T22:14:30.137Z,60.60
2018-05-25T22:16:57.679Z,61.40
2018-05-25T22:19:25.074Z,61.60
2018-05-25T22:21:52.518Z,61.70
2018-05-25T22:24:19.983Z,62.30
2018-05-25T22:26:47.422Z,62.70
2018-05-25T22:29:14.878Z,62.60
2018-05-25T22:31:43.094Z,62.90
2018-05-25T22:34:10.556Z,62.90
2018-05-25T22:36:38.032Z,62.80
2018-05-25T22:39:05.463Z,62.90
2018-05-25T22:41:33.677Z,64.40
2018-05-25T22:44:13.182Z,64.00
2018-05-25T22:46:52.411Z,64.30
2018-05-25T22:49:31.702Z,64.80
2018-05-25T22:52:11.121Z,65.40
2018-05-25T22:54:41.905Z,66.60
2018-05-25T22:57:09.358Z,67.50
2018-05-25T22:59:36.833Z,67.50
2018-05-25T23:02:04.299Z,67.90
2018-05-25T23:04:31.729Z,68.00
2018-05-25T23:06:59.191Z,68.00
2018-05-25T23:09:26.636Z,68.20
2018-05-25T23:11:54.086Z,68.00
2018-05-25T23:14:21.545Z,68.00
2018-05-25T23:16:48.994Z,68.70
2018-05-25T23:19:16.438Z,68.70
2018-05-25T23:21:43.918Z,68.70
2018-05-25T23:24:11.381Z,68.50
2018-05-25T23:26:38.835Z,68.20
2018-05-25T23:29:06.295Z,68.50
2018-05-25T23:31:34.531Z,69.30
2018-05-25T23:34:01.988Z,69.30
2018-05-25T23:36:29.443Z,69.60
2018-05-25T23:38:56.880Z,69.30
2018-05-25T23:41:24.322Z,69.30
2018-05-25T23:43:52.177Z,69.30
2018-05-25T23:46:19.634Z,69.30
2018-05-25T23:48:47.083Z,69.60
2018-05-25T23:51:14.522Z,69.80
2018-05-25T23:53:41.970Z,70.10
2018-05-25T23:56:09.430Z,70.00
2018-05-25T23:58:37.637Z,70.70
